sensor_id;sensor_type;location;lat;lon;timestamp;temperature;humidity
61016;DHT22;46902;52.920;6.536;2023-05-02T00:00:49;12.40;99.90
61016;DHT22;46902;52.920;6.536;2023-05-02T00:03:15;12.40;99.90
61016;DHT22;46902;52.920;6.536;2023-05-02T00:05:41;12.30;99.90
61016;DHT22;46902;52.920;6.536;2023-05-02T00:08:07;12.30;99.90
61016;DHT22;46902;52.920;6.536;2023-05-02T00:10:33;12.30;99.90
61016;DHT22;46902;52.920;6.536;2023-05-02T00:12:59;12.20;99.90
61016;DHT22;46902;52.920;6.536;2023-05-02T00:15:24;12.20;99.90
61016;DHT22;46902;52.920;6.536;2023-05-02T00:17:52;12.10;99.90
61016;DHT22;46902;52.920;6.536;2023-05-02T00:20:17;12.00;99.90
61016;DHT22;46902;52.920;6.536;2023-05-02T00:22:43;11.90;99.90
61016;DHT22;46902;52.920;6.536;2023-05-02T00:25:09;11.80;99.90
61016;DHT22;46902;52.920;6.536;2023-05-02T00:27:35;11.80;99.90
61016;DHT22;46902;52.920;6.536;2023-05-02T00:30:01;11.80;99.90
61016;DHT22;46902;52.920;6.536;2023-05-02T00:32:27;11.70;99.90
61016;DHT22;46902;52.920;6.536;2023-05-02T00:34:53;11.70;99.90
61016;DHT22;46902;52.920;6.536;2023-05-02T00:37:18;11.60;99.90
61016;DHT22;46902;52.920;6.536;2023-05-02T00:39:44;11.60;99.90
61016;DHT22;46902;52.920;6.536;2023-05-02T00:42:10;11.50;99.90
61016;DHT22;46902;52.920;6.536;2023-05-02T00:44:36;11.50;99.90
61016;DHT22;46902;52.920;6.536;2023-05-02T00:47:01;11.60;99.90
61016;DHT22;46902;52.920;6.536;2023-05-02T00:49:28;11.60;99.90
61016;DHT22;46902;52.920;6.536;2023-05-02T00:51:55;11.50;99.90
61016;DHT22;46902;52.920;6.536;2023-05-02T00:54:21;11.50;99.90
61016;DHT22;46902;52.920;6.536;2023-05-02T00:56:46;11.50;99.90
61016;DHT22;46902;52.920;6.536;2023-05-02T00:59:12;11.50;99.90
61016;DHT22;46902;52.920;6.536;2023-05-02T01:07:53;11.50;99.90
61016;DHT22;46902;52.920;6.536;2023-05-02T01:10:26;11.40;99.90
61016;DHT22;46902;52.920;6.536;2023-05-02T01:13:06;11.40;99.90
61016;DHT22;46902;52.920;6.536;2023-05-02T01:15:36;11.40;99.90
61016;DHT22;46902;52.920;6.536;2023-05-02T01:18:03;11.40;99.90
61016;DHT22;46902;52.920;6.536;2023-05-02T01:20:30;11.40;99.90
61016;DHT22;46902;52.920;6.536;2023-05-02T01:23:01;11.40;99.90
61016;DHT22;46902;52.920;6.536;2023-05-02T01:30:50;11.40;99.90
61016;DHT22;46902;52.920;6.536;2023-05-02T01:33:17;11.30;99.90
61016;DHT22;46902;52.920;6.536;2023-05-02T01:35:45;11.40;99.90
61016;DHT22;46902;52.920;6.536;2023-05-02T01:38:14;11.30;99.90
61016;DHT22;46902;52.920;6.536;2023-05-02T01:40:44;11.30;99.90
61016;DHT22;46902;52.920;6.536;2023-05-02T01:43:11;11.30;99.90
61016;DHT22;46902;52.920;6.536;2023-05-02T01:45:38;11.30;99.90
61016;DHT22;46902;52.920;6.536;2023-05-02T01:48:06;11.30;99.90
61016;DHT22;46902;52.920;6.536;2023-05-02T01:50:33;11.30;99.90
61016;DHT22;46902;52.920;6.536;2023-05-02T01:53:02;11.20;99.90
61016;DHT22;46902;52.920;6.536;2023-05-02T01:55:29;11.20;99.90
61016;DHT22;46902;52.920;6.536;2023-05-02T01:57:55;11.20;99.90
61016;DHT22;46902;52.920;6.536;2023-05-02T02:00:23;11.20;99.90
61016;DHT22;46902;52.920;6.536;2023-05-02T02:02:51;11.10;99.90
61016;DHT22;46902;52.920;6.536;2023-05-02T02:05:19;11.20;99.90
61016;DHT22;46902;52.920;6.536;2023-05-02T02:07:45;11.10;99.90
61016;DHT22;46902;52.920;6.536;2023-05-02T02:10:11;11.10;99.90
61016;DHT22;46902;52.920;6.536;2023-05-02T02:12:42;11.10;99.90
61016;DHT22;46902;52.920;6.536;2023-05-02T02:15:17;11.10;99.90
61016;DHT22;46902;52.920;6.536;2023-05-02T02:20:22;11.10;99.90
61016;DHT22;46902;52.920;6.536;2023-05-02T02:22:48;11.00;99.90
61016;DHT22;46902;52.920;6.536;2023-05-02T02:25:17;10.90;99.90
61016;DHT22;46902;52.920;6.536;2023-05-02T02:27:43;10.90;99.90
61016;DHT22;46902;52.920;6.536;2023-05-02T02:30:09;10.80;99.90
61016;DHT22;46902;52.920;6.536;2023-05-02T02:32:35;10.80;99.90
61016;DHT22;46902;52.920;6.536;2023-05-02T02:35:01;10.70;99.90
61016;DHT22;46902;52.920;6.536;2023-05-02T02:37:31;10.70;99.90
61016;DHT22;46902;52.920;6.536;2023-05-02T02:40:29;10.70;99.90
61016;DHT22;46902;52.920;6.536;2023-05-02T02:43:14;10.70;99.90
61016;DHT22;46902;52.920;6.536;2023-05-02T02:48:36;10.60;99.90
61016;DHT22;46902;52.920;6.536;2023-05-02T02:56:21;10.50;99.90
61016;DHT22;46902;52.920;6.536;2023-05-02T02:59:02;10.50;99.90
61016;DHT22;46902;52.920;6.536;2023-05-02T03:01:31;10.50;99.90
61016;DHT22;46902;52.920;6.536;2023-05-02T03:03:57;10.40;99.90
61016;DHT22;46902;52.920;6.536;2023-05-02T03:06:24;10.40;99.90
61016;DHT22;46902;52.920;6.536;2023-05-02T03:08:50;10.40;99.90
61016;DHT22;46902;52.920;6.536;2023-05-02T03:11:15;10.30;99.90
61016;DHT22;46902;52.920;6.536;2023-05-02T03:13:41;10.20;99.90
61016;DHT22;46902;52.920;6.536;2023-05-02T03:16:32;10.20;99.90
61016;DHT22;46902;52.920;6.536;2023-05-02T03:18:58;10.20;99.90
61016;DHT22;46902;52.920;6.536;2023-05-02T03:21:24;10.10;99.90
61016;DHT22;46902;52.920;6.536;2023-05-02T03:23:50;10.00;99.90
61016;DHT22;46902;52.920;6.536;2023-05-02T03:26:16;10.00;99.90
61016;DHT22;46902;52.920;6.536;2023-05-02T03:28:41;9.90;99.90
61016;DHT22;46902;52.920;6.536;2023-05-02T03:31:11;9.90;99.90
61016;DHT22;46902;52.920;6.536;2023-05-02T03:33:36;9.80;99.90
61016;DHT22;46902;52.920;6.536;2023-05-02T03:36:02;9.80;99.90
61016;DHT22;46902;52.920;6.536;2023-05-02T03:38:31;9.80;99.90
61016;DHT22;46902;52.920;6.536;2023-05-02T03:40:56;9.70;99.90
61016;DHT22;46902;52.920;6.536;2023-05-02T03:43:22;9.70;99.90
61016;DHT22;46902;52.920;6.536;2023-05-02T03:45:48;9.60;99.90
61016;DHT22;46902;52.920;6.536;2023-05-02T03:48:14;9.60;99.90
61016;DHT22;46902;52.920;6.536;2023-05-02T03:50:40;9.60;99.90
61016;DHT22;46902;52.920;6.536;2023-05-02T03:53:05;9.50;99.90
61016;DHT22;46902;52.920;6.536;2023-05-02T03:55:33;9.40;99.90
61016;DHT22;46902;52.920;6.536;2023-05-02T03:58:03;9.40;99.90
61016;DHT22;46902;52.920;6.536;2023-05-02T04:00:28;9.30;99.90
61016;DHT22;46902;52.920;6.536;2023-05-02T04:02:55;9.30;99.90
61016;DHT22;46902;52.920;6.536;2023-05-02T04:05:21;9.30;99.90
61016;DHT22;46902;52.920;6.536;2023-05-02T04:07:46;9.30;99.90
61016;DHT22;46902;52.920;6.536;2023-05-02T04:10:12;9.30;99.90
61016;DHT22;46902;52.920;6.536;2023-05-02T04:12:41;9.30;99.90
61016;DHT22;46902;52.920;6.536;2023-05-02T04:15:11;9.30;99.90
61016;DHT22;46902;52.920;6.536;2023-05-02T04:17:37;9.30;99.90
61016;DHT22;46902;52.920;6.536;2023-05-02T04:20:04;9.30;99.90
61016;DHT22;46902;52.920;6.536;2023-05-02T04:22:30;9.30;99.90
61016;DHT22;46902;52.920;6.536;2023-05-02T04:24:56;9.30;99.90
61016;DHT22;46902;52.920;6.536;2023-05-02T04:27:21;9.30;99.90
61016;DHT22;46902;52.920;6.536;2023-05-02T04:29:48;9.30;99.90
61016;DHT22;46902;52.920;6.536;2023-05-02T04:32:14;9.20;99.90
61016;DHT22;46902;52.920;6.536;2023-05-02T04:34:39;9.20;99.90
61016;DHT22;46902;52.920;6.536;2023-05-02T04:37:05;9.20;99.90
61016;DHT22;46902;52.920;6.536;2023-05-02T04:39:32;9.20;99.90
61016;DHT22;46902;52.920;6.536;2023-05-02T04:41:58;9.20;99.90
61016;DHT22;46902;52.920;6.536;2023-05-02T04:44:23;9.20;99.90
61016;DHT22;46902;52.920;6.536;2023-05-02T04:46:49;9.20;99.90
61016;DHT22;46902;52.920;6.536;2023-05-02T04:49:15;9.20;99.90
61016;DHT22;46902;52.920;6.536;2023-05-02T04:51:40;9.20;99.90
61016;DHT22;46902;52.920;6.536;2023-05-02T04:54:06;9.20;99.90
61016;DHT22;46902;52.920;6.536;2023-05-02T04:56:32;9.20;99.90
61016;DHT22;46902;52.920;6.536;2023-05-02T04:58:57;9.20;99.90
61016;DHT22;46902;52.920;6.536;2023-05-02T05:01:23;9.20;99.90
61016;DHT22;46902;52.920;6.536;2023-05-02T05:03:52;9.20;99.90
61016;DHT22;46902;52.920;6.536;2023-05-02T05:06:18;9.10;99.90
61016;DHT22;46902;52.920;6.536;2023-05-02T05:08:43;9.20;99.90
61016;DHT22;46902;52.920;6.536;2023-05-02T05:11:10;9.10;99.90
61016;DHT22;46902;52.920;6.536;2023-05-02T05:13:36;9.10;99.90
61016;DHT22;46902;52.920;6.536;2023-05-02T05:16:02;9.20;99.90
61016;DHT22;46902;52.920;6.536;2023-05-02T05:18:28;9.20;99.90
61016;DHT22;46902;52.920;6.536;2023-05-02T05:20:53;9.20;99.90
61016;DHT22;46902;52.920;6.536;2023-05-02T05:23:19;9.20;99.70
61016;DHT22;46902;52.920;6.536;2023-05-02T05:25:45;9.20;99.30
61016;DHT22;46902;52.920;6.536;2023-05-02T05:28:10;9.20;98.80
61016;DHT22;46902;52.920;6.536;2023-05-02T05:30:37;9.30;98.70
61016;DHT22;46902;52.920;6.536;2023-05-02T05:33:02;9.30;98.60
61016;DHT22;46902;52.920;6.536;2023-05-02T05:35:28;9.30;98.40
61016;DHT22;46902;52.920;6.536;2023-05-02T05:37:54;9.40;97.70
61016;DHT22;46902;52.920;6.536;2023-05-02T05:40:19;9.40;97.40
61016;DHT22;46902;52.920;6.536;2023-05-02T05:42:45;9.40;97.10
61016;DHT22;46902;52.920;6.536;2023-05-02T05:45:11;9.40;96.60
61016;DHT22;46902;52.920;6.536;2023-05-02T05:47:37;9.40;96.20
61016;DHT22;46902;52.920;6.536;2023-05-02T05:50:03;9.40;96.30
61016;DHT22;46902;52.920;6.536;2023-05-02T05:52:28;9.40;96.30
61016;DHT22;46902;52.920;6.536;2023-05-02T05:54:54;9.40;95.90
61016;DHT22;46902;52.920;6.536;2023-05-02T05:57:24;9.40;95.90
61016;DHT22;46902;52.920;6.536;2023-05-02T05:59:49;9.40;96.00
61016;DHT22;46902;52.920;6.536;2023-05-02T06:02:15;9.40;95.60
61016;DHT22;46902;52.920;6.536;2023-05-02T06:04:41;9.40;95.20
61016;DHT22;46902;52.920;6.536;2023-05-02T06:07:06;9.40;94.80
61016;DHT22;46902;52.920;6.536;2023-05-02T06:09:32;9.40;94.60
61016;DHT22;46902;52.920;6.536;2023-05-02T06:11:57;9.30;94.30
61016;DHT22;46902;52.920;6.536;2023-05-02T06:14:23;9.30;93.80
61016;DHT22;46902;52.920;6.536;2023-05-02T06:16:48;9.30;93.80
61016;DHT22;46902;52.920;6.536;2023-05-02T06:19:14;9.40;94.00
61016;DHT22;46902;52.920;6.536;2023-05-02T06:21:40;9.40;93.80
61016;DHT22;46902;52.920;6.536;2023-05-02T06:24:06;9.40;93.40
61016;DHT22;46902;52.920;6.536;2023-05-02T06:26:31;9.50;93.10
61016;DHT22;46902;52.920;6.536;2023-05-02T06:28:57;9.40;93.00
61016;DHT22;46902;52.920;6.536;2023-05-02T06:31:22;9.50;92.40
61016;DHT22;46902;52.920;6.536;2023-05-02T06:33:48;9.50;92.10
61016;DHT22;46902;52.920;6.536;2023-05-02T06:36:14;9.50;91.80
61016;DHT22;46902;52.920;6.536;2023-05-02T06:38:40;9.50;91.60
61016;DHT22;46902;52.920;6.536;2023-05-02T06:41:05;9.60;91.60
61016;DHT22;46902;52.920;6.536;2023-05-02T06:43:31;9.60;91.20
61016;DHT22;46902;52.920;6.536;2023-05-02T06:45:59;9.70;91.10
61016;DHT22;46902;52.920;6.536;2023-05-02T06:48:25;9.70;91.10
61016;DHT22;46902;52.920;6.536;2023-05-02T06:50:51;9.80;91.00
61016;DHT22;46902;52.920;6.536;2023-05-02T06:53:17;9.80;90.80
61016;DHT22;46902;52.920;6.536;2023-05-02T06:55:44;9.90;90.40
61016;DHT22;46902;52.920;6.536;2023-05-02T06:58:10;9.90;90.40
61016;DHT22;46902;52.920;6.536;2023-05-02T07:00:36;9.90;90.40
61016;DHT22;46902;52.920;6.536;2023-05-02T07:03:02;9.90;90.20
61016;DHT22;46902;52.920;6.536;2023-05-02T07:05:28;9.90;89.80
61016;DHT22;46902;52.920;6.536;2023-05-02T07:07:55;9.90;89.30
61016;DHT22;46902;52.920;6.536;2023-05-02T07:10:20;9.90;88.60
61016;DHT22;46902;52.920;6.536;2023-05-02T07:12:46;10.00;89.20
61016;DHT22;46902;52.920;6.536;2023-05-02T07:15:11;10.00;88.90
61016;DHT22;46902;52.920;6.536;2023-05-02T07:17:38;10.10;88.60
61016;DHT22;46902;52.920;6.536;2023-05-02T07:20:05;10.10;87.80
61016;DHT22;46902;52.920;6.536;2023-05-02T07:22:31;10.10;87.90
61016;DHT22;46902;52.920;6.536;2023-05-02T07:24:59;10.10;87.80
61016;DHT22;46902;52.920;6.536;2023-05-02T07:27:25;10.10;88.10
61016;DHT22;46902;52.920;6.536;2023-05-02T07:29:50;10.10;87.90
61016;DHT22;46902;52.920;6.536;2023-05-02T07:32:16;10.10;87.10
61016;DHT22;46902;52.920;6.536;2023-05-02T07:34:42;10.10;86.60
61016;DHT22;46902;52.920;6.536;2023-05-02T07:37:08;10.10;85.70
61016;DHT22;46902;52.920;6.536;2023-05-02T07:39:34;10.10;85.20
61016;DHT22;46902;52.920;6.536;2023-05-02T07:42:00;10.10;84.80
61016;DHT22;46902;52.920;6.536;2023-05-02T07:44:25;10.00;84.00
61016;DHT22;46902;52.920;6.536;2023-05-02T07:46:51;10.00;83.50
61016;DHT22;46902;52.920;6.536;2023-05-02T07:49:18;10.00;83.50
61016;DHT22;46902;52.920;6.536;2023-05-02T07:51:43;10.00;83.00
61016;DHT22;46902;52.920;6.536;2023-05-02T07:54:20;10.00;82.70
61016;DHT22;46902;52.920;6.536;2023-05-02T07:56:46;10.10;81.10
61016;DHT22;46902;52.920;6.536;2023-05-02T07:59:12;10.10;81.80
61016;DHT22;46902;52.920;6.536;2023-05-02T08:01:39;10.10;81.80
61016;DHT22;46902;52.920;6.536;2023-05-02T08:04:04;10.20;81.70
61016;DHT22;46902;52.920;6.536;2023-05-02T08:06:30;10.30;81.40
61016;DHT22;46902;52.920;6.536;2023-05-02T08:08:57;10.30;80.10
61016;DHT22;46902;52.920;6.536;2023-05-02T08:11:23;10.50;79.50
61016;DHT22;46902;52.920;6.536;2023-05-02T08:13:53;10.50;78.40
61016;DHT22;46902;52.920;6.536;2023-05-02T08:16:19;10.60;77.60
61016;DHT22;46902;52.920;6.536;2023-05-02T08:18:45;10.70;78.10
61016;DHT22;46902;52.920;6.536;2023-05-02T08:21:11;10.70;76.70
61016;DHT22;46902;52.920;6.536;2023-05-02T08:23:36;10.80;76.10
61016;DHT22;46902;52.920;6.536;2023-05-02T08:26:03;10.80;76.00
61016;DHT22;46902;52.920;6.536;2023-05-02T08:28:28;10.90;75.50
61016;DHT22;46902;52.920;6.536;2023-05-02T08:30:55;10.90;74.80
61016;DHT22;46902;52.920;6.536;2023-05-02T08:33:20;11.00;74.90
61016;DHT22;46902;52.920;6.536;2023-05-02T08:35:46;11.00;74.50
61016;DHT22;46902;52.920;6.536;2023-05-02T08:38:12;11.00;74.40
61016;DHT22;46902;52.920;6.536;2023-05-02T08:40:38;11.00;74.00
61016;DHT22;46902;52.920;6.536;2023-05-02T08:43:04;11.00;74.40
61016;DHT22;46902;52.920;6.536;2023-05-02T08:45:39;11.00;75.00
61016;DHT22;46902;52.920;6.536;2023-05-02T08:48:07;11.00;74.60
61016;DHT22;46902;52.920;6.536;2023-05-02T08:50:38;11.00;74.60
61016;DHT22;46902;52.920;6.536;2023-05-02T08:53:05;11.00;73.60
61016;DHT22;46902;52.920;6.536;2023-05-02T08:55:33;11.00;73.40
61016;DHT22;46902;52.920;6.536;2023-05-02T08:57:59;11.00;73.60
61016;DHT22;46902;52.920;6.536;2023-05-02T09:00:26;11.00;73.00
61016;DHT22;46902;52.920;6.536;2023-05-02T09:05:19;10.90;73.20
61016;DHT22;46902;52.920;6.536;2023-05-02T09:07:47;10.90;73.40
61016;DHT22;46902;52.920;6.536;2023-05-02T09:10:14;10.90;73.10
61016;DHT22;46902;52.920;6.536;2023-05-02T09:12:40;10.90;73.50
61016;DHT22;46902;52.920;6.536;2023-05-02T09:15:16;10.90;73.30
61016;DHT22;46902;52.920;6.536;2023-05-02T09:17:46;10.90;72.70
61016;DHT22;46902;52.920;6.536;2023-05-02T09:20:14;10.90;72.90
61016;DHT22;46902;52.920;6.536;2023-05-02T09:22:50;10.90;72.70
61016;DHT22;46902;52.920;6.536;2023-05-02T09:25:16;10.90;72.20
61016;DHT22;46902;52.920;6.536;2023-05-02T09:27:55;10.90;73.30
61016;DHT22;46902;52.920;6.536;2023-05-02T09:32:48;11.20;73.30
61016;DHT22;46902;52.920;6.536;2023-05-02T09:35:16;11.30;73.50
61016;DHT22;46902;52.920;6.536;2023-05-02T09:37:57;11.40;73.00
61016;DHT22;46902;52.920;6.536;2023-05-02T09:40:24;11.40;72.50
61016;DHT22;46902;52.920;6.536;2023-05-02T09:42:51;11.40;73.20
61016;DHT22;46902;52.920;6.536;2023-05-02T09:45:21;11.40;72.90
61016;DHT22;46902;52.920;6.536;2023-05-02T09:47:48;11.40;72.50
61016;DHT22;46902;52.920;6.536;2023-05-02T09:50:36;11.40;72.90
61016;DHT22;46902;52.920;6.536;2023-05-02T09:53:04;11.30;71.10
61016;DHT22;46902;52.920;6.536;2023-05-02T09:55:31;11.30;72.70
61016;DHT22;46902;52.920;6.536;2023-05-02T09:57:58;11.40;72.60
61016;DHT22;46902;52.920;6.536;2023-05-02T10:00:37;11.40;72.20
61016;DHT22;46902;52.920;6.536;2023-05-02T10:03:05;11.60;72.20
61016;DHT22;46902;52.920;6.536;2023-05-02T10:05:35;11.80;71.80
61016;DHT22;46902;52.920;6.536;2023-05-02T10:08:03;11.90;71.50
61016;DHT22;46902;52.920;6.536;2023-05-02T10:10:32;12.10;70.60
61016;DHT22;46902;52.920;6.536;2023-05-02T10:13:03;12.20;70.30
61016;DHT22;46902;52.920;6.536;2023-05-02T10:15:30;12.20;70.10
61016;DHT22;46902;52.920;6.536;2023-05-02T10:17:58;12.10;69.50
61016;DHT22;46902;52.920;6.536;2023-05-02T10:20:34;12.10;69.80
61016;DHT22;46902;52.920;6.536;2023-05-02T10:23:01;12.10;69.80
61016;DHT22;46902;52.920;6.536;2023-05-02T10:25:27;12.10;70.30
61016;DHT22;46902;52.920;6.536;2023-05-02T10:27:56;12.10;69.80
61016;DHT22;46902;52.920;6.536;2023-05-02T10:30:25;12.10;69.80
61016;DHT22;46902;52.920;6.536;2023-05-02T10:32:51;12.00;69.40
61016;DHT22;46902;52.920;6.536;2023-05-02T10:35:20;12.10;69.30
61016;DHT22;46902;52.920;6.536;2023-05-02T10:37:47;12.20;69.60
61016;DHT22;46902;52.920;6.536;2023-05-02T10:40:14;12.20;69.40
61016;DHT22;46902;52.920;6.536;2023-05-02T10:42:43;12.30;69.50
61016;DHT22;46902;52.920;6.536;2023-05-02T10:45:30;12.50;69.30
61016;DHT22;46902;52.920;6.536;2023-05-02T10:48:18;12.80;67.80
61016;DHT22;46902;52.920;6.536;2023-05-02T10:50:51;12.90;67.50
61016;DHT22;46902;52.920;6.536;2023-05-02T10:53:43;13.10;67.50
61016;DHT22;46902;52.920;6.536;2023-05-02T10:56:19;13.20;66.70
61016;DHT22;46902;52.920;6.536;2023-05-02T10:58:51;13.30;66.90
61016;DHT22;46902;52.920;6.536;2023-05-02T11:04:04;13.30;66.90
61016;DHT22;46902;52.920;6.536;2023-05-02T11:06:33;13.30;66.10
61016;DHT22;46902;52.920;6.536;2023-05-02T11:11:44;13.30;66.10
61016;DHT22;46902;52.920;6.536;2023-05-02T11:14:11;13.30;66.80
61016;DHT22;46902;52.920;6.536;2023-05-02T11:17:04;13.40;66.70
61016;DHT22;46902;52.920;6.536;2023-05-02T11:24:51;14.20;66.10
61016;DHT22;46902;52.920;6.536;2023-05-02T11:30:08;14.10;62.50
61016;DHT22;46902;52.920;6.536;2023-05-02T11:35:25;13.90;64.30
61016;DHT22;46902;52.920;6.536;2023-05-02T11:38:02;13.90;64.40
61016;DHT22;46902;52.920;6.536;2023-05-02T11:40:28;13.80;64.50
61016;DHT22;46902;52.920;6.536;2023-05-02T11:42:55;13.70;65.00
61016;DHT22;46902;52.920;6.536;2023-05-02T11:45:21;13.60;65.50
61016;DHT22;46902;52.920;6.536;2023-05-02T11:47:56;13.60;65.50
61016;DHT22;46902;52.920;6.536;2023-05-02T11:50:22;13.50;66.00
61016;DHT22;46902;52.920;6.536;2023-05-02T11:52:50;13.40;66.10
61016;DHT22;46902;52.920;6.536;2023-05-02T11:55:16;13.20;66.10
61016;DHT22;46902;52.920;6.536;2023-05-02T11:57:42;13.10;65.70
61016;DHT22;46902;52.920;6.536;2023-05-02T12:00:08;13.00;66.10
61016;DHT22;46902;52.920;6.536;2023-05-02T12:02:43;12.90;66.80
61016;DHT22;46902;52.920;6.536;2023-05-02T12:05:13;12.90;67.40
61016;DHT22;46902;52.920;6.536;2023-05-02T12:07:41;12.80;67.70
61016;DHT22;46902;52.920;6.536;2023-05-02T12:10:08;12.90;68.30
61016;DHT22;46902;52.920;6.536;2023-05-02T12:12:34;12.90;68.80
61016;DHT22;46902;52.920;6.536;2023-05-02T12:15:05;12.90;68.90
61016;DHT22;46902;52.920;6.536;2023-05-02T12:17:31;12.90;68.50
61016;DHT22;46902;52.920;6.536;2023-05-02T12:19:59;13.00;68.70
61016;DHT22;46902;52.920;6.536;2023-05-02T12:22:25;13.00;68.80
61016;DHT22;46902;52.920;6.536;2023-05-02T12:24:51;13.20;69.30
61016;DHT22;46902;52.920;6.536;2023-05-02T12:27:18;13.30;68.90
61016;DHT22;46902;52.920;6.536;2023-05-02T12:29:46;13.40;68.90
61016;DHT22;46902;52.920;6.536;2023-05-02T12:32:12;13.40;68.90
61016;DHT22;46902;52.920;6.536;2023-05-02T12:34:39;13.40;69.00
61016;DHT22;46902;52.920;6.536;2023-05-02T12:37:06;13.30;69.20
61016;DHT22;46902;52.920;6.536;2023-05-02T12:39:40;13.30;69.10
61016;DHT22;46902;52.920;6.536;2023-05-02T12:42:14;13.30;68.50
61016;DHT22;46902;52.920;6.536;2023-05-02T12:44:42;13.30;67.60
61016;DHT22;46902;52.920;6.536;2023-05-02T12:47:18;13.40;67.80
61016;DHT22;46902;52.920;6.536;2023-05-02T12:49:55;13.50;67.70
61016;DHT22;46902;52.920;6.536;2023-05-02T12:52:50;13.50;67.60
61016;DHT22;46902;52.920;6.536;2023-05-02T12:55:22;13.40;67.90
61016;DHT22;46902;52.920;6.536;2023-05-02T12:57:49;13.40;68.10
61016;DHT22;46902;52.920;6.536;2023-05-02T13:00:18;13.20;67.90
61016;DHT22;46902;52.920;6.536;2023-05-02T13:02:44;13.10;68.20
61016;DHT22;46902;52.920;6.536;2023-05-02T13:05:18;13.00;68.50
61016;DHT22;46902;52.920;6.536;2023-05-02T13:07:45;12.90;68.30
61016;DHT22;46902;52.920;6.536;2023-05-02T13:10:10;12.70;68.50
61016;DHT22;46902;52.920;6.536;2023-05-02T13:12:38;12.70;68.60
61016;DHT22;46902;52.920;6.536;2023-05-02T13:15:04;12.70;68.50
61016;DHT22;46902;52.920;6.536;2023-05-02T13:17:31;12.80;68.70
61016;DHT22;46902;52.920;6.536;2023-05-02T13:19:57;12.90;68.90
61016;DHT22;46902;52.920;6.536;2023-05-02T13:22:23;13.00;69.10
61016;DHT22;46902;52.920;6.536;2023-05-02T13:24:50;13.10;69.30
61016;DHT22;46902;52.920;6.536;2023-05-02T13:27:15;13.30;68.50
61016;DHT22;46902;52.920;6.536;2023-05-02T13:29:43;13.50;68.00
61016;DHT22;46902;52.920;6.536;2023-05-02T13:32:09;13.70;67.10
61016;DHT22;46902;52.920;6.536;2023-05-02T13:34:34;13.80;66.20
61016;DHT22;46902;52.920;6.536;2023-05-02T13:37:00;14.00;65.40
61016;DHT22;46902;52.920;6.536;2023-05-02T13:39:26;14.40;64.80
61016;DHT22;46902;52.920;6.536;2023-05-02T13:41:51;14.60;64.40
61016;DHT22;46902;52.920;6.536;2023-05-02T13:44:17;14.90;63.20
61016;DHT22;46902;52.920;6.536;2023-05-02T13:46:42;15.00;62.90
61016;DHT22;46902;52.920;6.536;2023-05-02T13:49:08;14.90;62.30
61016;DHT22;46902;52.920;6.536;2023-05-02T13:51:34;14.70;62.30
61016;DHT22;46902;52.920;6.536;2023-05-02T13:54:00;14.50;62.30
61016;DHT22;46902;52.920;6.536;2023-05-02T13:56:26;14.20;62.90
61016;DHT22;46902;52.920;6.536;2023-05-02T13:58:52;14.10;63.50
61016;DHT22;46902;52.920;6.536;2023-05-02T14:01:18;14.00;63.70
61016;DHT22;46902;52.920;6.536;2023-05-02T14:03:43;14.00;63.90
61016;DHT22;46902;52.920;6.536;2023-05-02T14:06:09;14.20;63.40
61016;DHT22;46902;52.920;6.536;2023-05-02T14:08:34;14.40;63.20
61016;DHT22;46902;52.920;6.536;2023-05-02T14:11:00;14.30;62.10
61016;DHT22;46902;52.920;6.536;2023-05-02T14:13:26;14.30;62.10
61016;DHT22;46902;52.920;6.536;2023-05-02T14:15:54;14.20;62.80
61016;DHT22;46902;52.920;6.536;2023-05-02T14:18:20;14.10;63.60
61016;DHT22;46902;52.920;6.536;2023-05-02T14:20:46;14.00;64.50
61016;DHT22;46902;52.920;6.536;2023-05-02T14:23:11;13.90;64.60
61016;DHT22;46902;52.920;6.536;2023-05-02T14:25:37;13.80;64.70
61016;DHT22;46902;52.920;6.536;2023-05-02T14:28:03;13.70;64.60
61016;DHT22;46902;52.920;6.536;2023-05-02T14:30:29;13.60;65.00
61016;DHT22;46902;52.920;6.536;2023-05-02T14:32:55;13.60;64.90
61016;DHT22;46902;52.920;6.536;2023-05-02T14:35:22;13.60;64.90
61016;DHT22;46902;52.920;6.536;2023-05-02T14:37:48;13.70;64.70
61016;DHT22;46902;52.920;6.536;2023-05-02T14:40:13;13.60;64.50
61016;DHT22;46902;52.920;6.536;2023-05-02T14:42:40;13.70;64.30
61016;DHT22;46902;52.920;6.536;2023-05-02T14:45:07;13.80;64.10
61016;DHT22;46902;52.920;6.536;2023-05-02T14:47:33;14.10;64.20
61016;DHT22;46902;52.920;6.536;2023-05-02T14:49:59;14.30;63.80
61016;DHT22;46902;52.920;6.536;2023-05-02T14:52:25;14.50;63.00
61016;DHT22;46902;52.920;6.536;2023-05-02T14:54:51;14.80;62.60
61016;DHT22;46902;52.920;6.536;2023-05-02T14:57:17;14.90;62.10
61016;DHT22;46902;52.920;6.536;2023-05-02T14:59:43;14.80;61.90
61016;DHT22;46902;52.920;6.536;2023-05-02T15:02:09;14.70;61.30
61016;DHT22;46902;52.920;6.536;2023-05-02T15:04:35;14.50;61.20
61016;DHT22;46902;52.920;6.536;2023-05-02T15:07:01;14.40;61.90
61016;DHT22;46902;52.920;6.536;2023-05-02T15:09:27;14.20;62.10
61016;DHT22;46902;52.920;6.536;2023-05-02T15:11:54;14.10;62.10
61016;DHT22;46902;52.920;6.536;2023-05-02T15:14:20;13.90;61.70
61016;DHT22;46902;52.920;6.536;2023-05-02T15:16:45;13.80;61.80
61016;DHT22;46902;52.920;6.536;2023-05-02T15:19:12;13.60;61.90
61016;DHT22;46902;52.920;6.536;2023-05-02T15:21:38;13.50;62.60
61016;DHT22;46902;52.920;6.536;2023-05-02T15:24:04;13.50;62.60
61016;DHT22;46902;52.920;6.536;2023-05-02T15:26:30;13.40;62.60
61016;DHT22;46902;52.920;6.536;2023-05-02T15:28:55;13.30;62.60
61016;DHT22;46902;52.920;6.536;2023-05-02T15:31:21;13.30;62.50
61016;DHT22;46902;52.920;6.536;2023-05-02T15:33:47;13.30;62.40
61016;DHT22;46902;52.920;6.536;2023-05-02T15:36:13;13.30;62.30
61016;DHT22;46902;52.920;6.536;2023-05-02T15:38:39;13.30;62.20
61016;DHT22;46902;52.920;6.536;2023-05-02T15:41:07;13.30;62.80
61016;DHT22;46902;52.920;6.536;2023-05-02T15:43:33;13.30;63.50
61016;DHT22;46902;52.920;6.536;2023-05-02T15:45:59;13.20;63.90
61016;DHT22;46902;52.920;6.536;2023-05-02T15:48:31;13.20;64.40
61016;DHT22;46902;52.920;6.536;2023-05-02T15:50:58;13.20;63.20
61016;DHT22;46902;52.920;6.536;2023-05-02T15:53:23;13.10;63.10
61016;DHT22;46902;52.920;6.536;2023-05-02T15:55:50;13.10;62.90
61016;DHT22;46902;52.920;6.536;2023-05-02T15:58:16;13.10;62.70
61016;DHT22;46902;52.920;6.536;2023-05-02T16:00:43;13.10;62.90
61016;DHT22;46902;52.920;6.536;2023-05-02T16:03:09;13.20;62.90
61016;DHT22;46902;52.920;6.536;2023-05-02T16:05:36;13.20;62.50
61016;DHT22;46902;52.920;6.536;2023-05-02T16:08:02;13.20;61.80
61016;DHT22;46902;52.920;6.536;2023-05-02T16:10:28;13.30;61.80
61016;DHT22;46902;52.920;6.536;2023-05-02T16:12:53;13.50;61.30
61016;DHT22;46902;52.920;6.536;2023-05-02T16:15:20;13.60;61.30
61016;DHT22;46902;52.920;6.536;2023-05-02T16:17:46;13.80;62.20
61016;DHT22;46902;52.920;6.536;2023-05-02T16:20:16;13.90;63.60